Aviation Digital Data Service (ADDS)

Output produced by METARs form (1505 UTC 29 May 2017)
found at http://www.aviationweather.gov/adds/metars/
 
METAR text: KTAZ 291455Z AUTO 22005KT 10SM CLR 23/14 A2990 RMK AO2 T02310136
Conditions at: KTAZ (TAYLORVILLE , IL, US) observed 1455 UTC 29 May 2017
Temperature: 23.1°C (74°F)
Dewpoint: 13.6°C (56°F) [RH = 55%]
Pressure (altimeter): 29.90 inches Hg (1012.6 mb)
Winds: from the SW (220 degrees) at 6 MPH (5 knots; 2.6 m/s)
Visibility: 10 or more miles (16+ km)
Ceiling: at least 12,000 feet AGL
Clouds: sky clear below 12,000 feet AGL
Weather: automated observation with no human augmentation;
there may or may not be significant weather present at this time